Home PIREPS Pireps

Flight BEL12256TR

  • Submitted By: AndrĂ© Vincent
  • Departure Airport: Sevilla / San Pablo (LEZL)
  • Arrival Airport: Bina (UBBB)
  • Aircraft: YOUR CHOICE (YC)
  • Flight Time: 06.00
  • Date Submitted: 29/11/2017
  • Status: Accepted
Flight Details
Gross Revenue:
(25 load / € 0.00 per unit
€ 0.00
Fuel Cost:
(74127 fuel used @ 5.1 / unit)
€ 378,047.70

Additional Log Information:

View Log

Aircraft Used in flight is Boeing 747-400
04:25 Brakes are On
04:27 Brakes are Released
04:36 You Took off @ 244 Knots and Flaps at Position 2
Departure Weather
LEZL 290300Z 01008KT 4000 TSRA FEW002 SCT008 BKN020CB 16/16 Q1007 NOSIGrn
04:36 Landing Gear Up @ 242 Knots and 220 Feet
04:52 In Air Refuel Suspected
08:14 Overspeed
08:15 Recovered from Overspeed
10:20 Landing Gear Down @ 137 Knots and 1480 Feet
10:23 Stalling
10:23 Recovered from Stall
10:23 You Landed @ 101 Knots and with -1500 Vertical Speed
Arrival Weather
UBBB 290900Z 18007KT 9999 OVC032 09/04 Q1024 R88/CLRD// NOSIGrn
10:23 Your Landing was very hard
10:25 Brakes are On
10:26 Brussels Bel-Track1.0.1.2

Route Map

Corporate About Us Our Team Vacancies Information Fleet Route Network Rules and Regulations Operations Flight Schedules Event Center Tours Partners IVAO Vatsim Acars dev FSCB

fb Users Online Belgium Jos Viville,
2 Pilot(s) and 171 Guest(s) Online
CMS by phpVMS - Design by Crazycreatives.com - Copyright © 2018 - Brussels Airlines Virtual